Time;durP1;ratioP1;P1;durP2;ratioP2;P2;SDS_P1;SDS_P2;PMS_P1;PMS_P2;Temp;Humidity;BMP_temperature;BMP_pressure;BME280_temperature;BME280_humidity;BME280_pressure;Samples;Min_cycle;Max_cycle;Signal;HPM_P1;HPM_P2
2022/03/04 00:00:43;;;;;;;41.78;19.52;;;;;;;;;;5018969;28;20050;-80
2022/03/04 00:03:11;;;;;;;39.22;19.23;;;;;;;;;;5019293;28;20066;-80
2022/03/04 00:05:38;;;;;;;42.95;20.60;;;;;;;;;;5014072;28;20136;-80
2022/03/04 00:08:05;;;;;;;42.95;20.48;;;;;;;;;;5011470;28;20057;-80
2022/03/04 00:10:34;;;;;;;47.25;20.92;;;;;;;;;;5012534;28;20046;-80
2022/03/04 00:13:01;;;;;;;41.17;19.25;;;;;;;;;;5012834;28;20046;-80
2022/03/04 00:15:28;;;;;;;41.03;19.17;;;;;;;;;;5013038;28;20084;-80
2022/03/04 00:17:55;;;;;;;40.08;19.95;;;;;;;;;;5013709;28;20046;-78
2022/03/04 00:20:22;;;;;;;41.15;20.30;;;;;;;;;;5014010;28;20062;-81
2022/03/04 00:22:49;;;;;;;46.00;20.42;;;;;;;;;;5015791;28;20115;-80
2022/03/04 00:25:17;;;;;;;41.88;19.75;;;;;;;;;;5016012;28;20050;-81
2022/03/04 00:27:45;;;;;;;39.60;20.05;;;;;;;;;;5015512;28;20050;-80
2022/03/04 00:30:13;;;;;;;42.63;19.13;;;;;;;;;;5016402;28;20041;-80
2022/03/04 00:32:40;;;;;;;48.67;22.10;;;;;;;;;;5023189;28;20046;-78
2022/03/04 00:35:08;;;;;;;45.80;19.63;;;;;;;;;;5034541;28;20056;-78
2022/03/04 00:37:35;;;;;;;44.20;20.52;;;;;;;;;;5028476;28;20050;-81
2022/03/04 00:40:03;;;;;;;41.80;19.92;;;;;;;;;;5019324;28;20386;-79
2022/03/04 00:42:30;;;;;;;45.33;21.02;;;;;;;;;;5015307;28;20056;-80
2022/03/04 00:44:59;;;;;;;41.80;19.45;;;;;;;;;;5016203;28;20042;-80
2022/03/04 00:47:25;;;;;;;45.05;20.67;;;;;;;;;;5018746;28;20057;-81
2022/03/04 00:49:52;;;;;;;51.33;20.58;;;;;;;;;;5022050;28;20472;-81
2022/03/04 00:52:19;;;;;;;44.72;18.45;;;;;;;;;;5018888;28;20104;-80
2022/03/04 00:54:46;;;;;;;43.72;19.88;;;;;;;;;;5017985;28;20057;-80
2022/03/04 00:57:12;;;;;;;43.28;20.27;;;;;;;;;;5016313;28;20413;-79
2022/03/04 00:59:39;;;;;;;45.28;21.27;;;;;;;;;;5016847;28;20050;-80
2022/03/04 01:02:07;;;;;;;42.97;20.13;;;;;;;;;;5019061;28;20111;-80
2022/03/04 01:04:34;;;;;;;43.22;19.00;;;;;;;;;;5018894;28;20539;-78
2022/03/04 01:07:01;;;;;;;43.15;18.85;;;;;;;;;;5019322;28;20057;-79
2022/03/04 01:09:28;;;;;;;40.70;18.83;;;;;;;;;;5019913;28;20045;-79
2022/03/04 01:11:55;;;;;;;43.92;19.77;;;;;;;;;;5019467;28;20093;-76
2022/03/04 01:14:22;;;;;;;48.33;21.60;;;;;;;;;;5023618;28;20084;-76
2022/03/04 01:16:48;;;;;;;44.97;20.30;;;;;;;;;;5037002;28;20038;-77
2022/03/04 01:19:17;;;;;;;42.05;19.60;;;;;;;;;;5033092;28;20080;-79
2022/03/04 01:21:43;;;;;;;39.00;19.13;;;;;;;;;;5021685;28;20054;-79
2022/03/04 01:24:10;;;;;;;43.22;19.48;;;;;;;;;;5023851;28;20050;-78
2022/03/04 01:26:37;;;;;;;40.20;19.05;;;;;;;;;;5026869;28;20636;-79
2022/03/04 01:29:04;;;;;;;46.05;19.75;;;;;;;;;;5027231;28;20042;-78
2022/03/04 01:31:31;;;;;;;42.95;20.13;;;;;;;;;;5020367;28;20050;-77
2022/03/04 01:33:58;;;;;;;38.95;18.42;;;;;;;;;;5025758;28;20050;-77
2022/03/04 01:36:30;;;;;;;45.03;19.23;;;;;;;;;;5027420;28;20057;-77
2022/03/04 01:38:57;;;;;;;38.40;18.73;;;;;;;;;;5023497;28;20128;-79
2022/03/04 01:41:23;;;;;;;44.47;19.55;;;;;;;;;;5021436;28;20046;-79
2022/03/04 01:43:50;;;;;;;42.55;18.83;;;;;;;;;;5021044;28;20049;-78
2022/03/04 01:46:19;;;;;;;43.35;18.77;;;;;;;;;;5020686;28;20041;-79
2022/03/04 01:48:47;;;;;;;43.85;20.15;;;;;;;;;;5020260;28;20061;-79
2022/03/04 01:51:14;;;;;;;45.55;18.35;;;;;;;;;;5020170;28;20057;-79
2022/03/04 01:53:43;;;;;;;38.20;18.27;;;;;;;;;;5019372;28;20050;-79
2022/03/04 01:56:10;;;;;;;39.97;18.23;;;;;;;;;;5020034;28;20118;-79
2022/03/04 01:58:37;;;;;;;40.67;19.52;;;;;;;;;;5019371;28;20046;-79
2022/03/04 02:01:04;;;;;;;41.13;18.30;;;;;;;;;;5019820;28;20089;-79
2022/03/04 02:03:31;;;;;;;43.20;20.30;;;;;;;;;;5019672;28;20520;-78
2022/03/04 02:05:58;;;;;;;35.70;18.20;;;;;;;;;;5019281;28;20464;-79
2022/03/04 02:08:25;;;;;;;47.70;19.38;;;;;;;;;;5019113;28;20573;-78
2022/03/04 02:10:53;;;;;;;44.13;18.90;;;;;;;;;;5019232;28;20049;-79
2022/03/04 02:13:20;;;;;;;48.95;19.85;;;;;;;;;;5018996;28;20421;-79
2022/03/04 02:15:47;;;;;;;47.42;19.88;;;;;;;;;;5019045;28;20501;-78
2022/03/04 02:18:17;;;;;;;39.15;18.35;;;;;;;;;;5018266;28;20077;-79
2022/03/04 02:20:47;;;;;;;50.22;19.95;;;;;;;;;;5018876;28;20073;-79
2022/03/04 02:23:16;;;;;;;36.90;19.00;;;;;;;;;;5018782;28;20050;-79
2022/03/04 02:25:47;;;;;;;44.45;18.73;;;;;;;;;;5018499;28;20089;-79
2022/03/04 02:28:14;;;;;;;43.08;18.88;;;;;;;;;;5018207;28;20050;-79
2022/03/04 02:30:42;;;;;;;38.83;18.08;;;;;;;;;;5018396;28;20046;-78
2022/03/04 02:33:09;;;;;;;46.30;20.45;;;;;;;;;;5018221;28;20104;-78
2022/03/04 02:35:37;;;;;;;38.55;17.70;;;;;;;;;;5017887;28;20050;-78
2022/03/04 02:38:05;;;;;;;39.88;19.48;;;;;;;;;;5017329;28;20464;-78
2022/03/04 02:40:33;;;;;;;39.42;19.23;;;;;;;;;;5018618;28;20077;-79
2022/03/04 02:43:00;;;;;;;45.67;19.67;;;;;;;;;;5015689;28;20054;-78
2022/03/04 02:45:26;;;;;;;42.97;18.70;;;;;;;;;;5018742;28;20049;-78
2022/03/04 02:47:53;;;;;;;40.83;19.08;;;;;;;;;;5016231;28;20128;-78
2022/03/04 02:50:21;;;;;;;40.78;19.25;;;;;;;;;;5022988;28;20046;-78
2022/03/04 02:52:47;;;;;;;42.55;18.27;;;;;;;;;;5018784;28;20045;-78
2022/03/04 02:55:14;;;;;;;42.83;19.45;;;;;;;;;;5013719;28;20111;-78
2022/03/04 02:57:45;;;;;;;38.78;18.80;;;;;;;;;;5013101;28;20501;-79
2022/03/04 03:00:13;;;;;;;41.30;17.90;;;;;;;;;;5013700;28;20049;-77
2022/03/04 03:02:40;;;;;;;37.28;17.33;;;;;;;;;;5013123;28;20386;-78
2022/03/04 03:05:09;;;;;;;41.67;17.65;;;;;;;;;;5013618;28;20078;-79
2022/03/04 03:07:36;;;;;;;42.28;19.75;;;;;;;;;;5013362;28;20042;-79
2022/03/04 03:10:04;;;;;;;41.75;18.80;;;;;;;;;;5014380;28;20046;-79
2022/03/04 03:12:31;;;;;;;40.28;18.75;;;;;;;;;;5015426;28;20050;-79
2022/03/04 03:14:59;;;;;;;40.70;19.33;;;;;;;;;;5016038;28;20104;-79
2022/03/04 03:17:25;;;;;;;40.63;18.67;;;;;;;;;;5014938;28;20476;-79
2022/03/04 03:19:52;;;;;;;42.55;19.02;;;;;;;;;;5015416;28;20464;-79
2022/03/04 03:22:19;;;;;;;42.85;18.70;;;;;;;;;;5014404;28;20131;-80
2022/03/04 03:24:46;;;;;;;44.50;19.58;;;;;;;;;;5014793;28;20053;-79
2022/03/04 03:27:14;;;;;;;38.92;18.63;;;;;;;;;;5013908;28;20104;-78
2022/03/04 03:29:41;;;;;;;40.92;19.27;;;;;;;;;;5014437;28;20056;-79
2022/03/04 03:32:11;;;;;;;41.20;18.60;;;;;;;;;;5028117;23;20472;-81
2022/03/04 03:34:38;;;;;;;45.87;20.23;;;;;;;;;;5037753;28;20084;-80
2022/03/04 03:37:05;;;;;;;39.05;18.48;;;;;;;;;;5039393;28;20479;-79
2022/03/04 03:39:32;;;;;;;41.83;19.58;;;;;;;;;;5042038;28;20111;-80
2022/03/04 03:41:59;;;;;;;42.30;19.52;;;;;;;;;;5040566;28;20048;-80
2022/03/04 03:44:26;;;;;;;45.65;19.05;;;;;;;;;;5040888;28;20052;-80
2022/03/04 03:46:53;;;;;;;40.92;18.95;;;;;;;;;;5040690;28;20096;-80
2022/03/04 03:49:22;;;;;;;40.72;18.42;;;;;;;;;;5041553;28;20046;-80
2022/03/04 03:51:48;;;;;;;44.70;20.00;;;;;;;;;;5041076;28;20103;-80
2022/03/04 03:54:16;;;;;;;43.17;19.40;;;;;;;;;;5040067;28;20053;-80
2022/03/04 03:56:43;;;;;;;41.53;18.45;;;;;;;;;;5037870;28;20046;-80
2022/03/04 03:59:10;;;;;;;44.72;19.02;;;;;;;;;;5038654;28;20072;-80
2022/03/04 04:01:38;;;;;;;41.63;19.75;;;;;;;;;;5038561;28;20045;-80
2022/03/04 04:04:07;;;;;;;44.45;18.15;;;;;;;;;;5038614;28;20046;-80
2022/03/04 04:06:35;;;;;;;37.30;18.27;;;;;;;;;;5039546;28;20459;-80
2022/03/04 04:09:02;;;;;;;44.50;19.17;;;;;;;;;;5041984;28;20042;-80
2022/03/04 04:11:30;;;;;;;44.47;19.20;;;;;;;;;;5050267;28;20048;-80
2022/03/04 04:13:57;;;;;;;41.78;18.60;;;;;;;;;;5054630;28;20041;-80
2022/03/04 04:16:24;;;;;;;43.20;19.00;;;;;;;;;;5054841;28;20046;-80
2022/03/04 04:18:51;;;;;;;47.30;20.05;;;;;;;;;;5055163;28;20030;-80
2022/03/04 04:21:18;;;;;;;38.17;17.65;;;;;;;;;;5052967;28;20045;-80
2022/03/04 04:23:46;;;;;;;44.08;19.88;;;;;;;;;;5053367;28;20489;-80
2022/03/04 04:26:13;;;;;;;46.17;19.42;;;;;;;;;;5040979;28;20049;-80
2022/03/04 04:28:39;;;;;;;47.45;18.95;;;;;;;;;;5040600;28;20045;-81
2022/03/04 04:31:06;;;;;;;44.25;19.15;;;;;;;;;;5039390;28;20046;-80
2022/03/04 04:33:33;;;;;;;39.80;19.63;;;;;;;;;;5036995;28;20152;-81
2022/03/04 04:36:00;;;;;;;39.05;19.02;;;;;;;;;;5040570;28;20056;-80
2022/03/04 04:38:27;;;;;;;44.35;19.23;;;;;;;;;;5041409;28;20049;-81
2022/03/04 04:40:55;;;;;;;44.42;19.45;;;;;;;;;;5043087;28;20060;-80
2022/03/04 04:43:23;;;;;;;42.53;18.45;;;;;;;;;;5041161;28;20046;-81
2022/03/04 04:45:50;;;;;;;48.85;20.88;;;;;;;;;;5040973;28;20504;-80
2022/03/04 04:48:23;;;;;;;45.40;19.02;;;;;;;;;;5041874;28;20060;-80
2022/03/04 04:50:49;;;;;;;41.38;19.50;;;;;;;;;;5041092;28;20084;-81
2022/03/04 04:53:16;;;;;;;37.70;18.83;;;;;;;;;;5040065;28;20045;-81
2022/03/04 04:55:43;;;;;;;43.85;19.75;;;;;;;;;;5040469;28;20049;-80
2022/03/04 04:58:11;;;;;;;40.72;19.10;;;;;;;;;;5039997;28;20076;-81
2022/03/04 05:00:38;;;;;;;37.88;17.85;;;;;;;;;;5041071;28;20107;-81
2022/03/04 05:03:05;;;;;;;42.22;19.38;;;;;;;;;;5040350;28;20523;-80
2022/03/04 05:05:32;;;;;;;46.92;19.63;;;;;;;;;;5041359;28;20049;-81
2022/03/04 05:07:59;;;;;;;44.72;18.73;;;;;;;;;;5040422;28;20049;-81
2022/03/04 05:10:26;;;;;;;39.40;18.75;;;;;;;;;;5045316;28;20409;-80
2022/03/04 05:12:52;;;;;;;41.50;18.75;;;;;;;;;;5041290;28;20060;-81
2022/03/04 05:15:21;;;;;;;39.20;18.30;;;;;;;;;;5041833;28;20057;-80
2022/03/04 05:17:50;;;;;;;46.15;19.17;;;;;;;;;;5045389;28;20033;-80
2022/03/04 05:20:17;;;;;;;42.95;18.88;;;;;;;;;;5058036;28;20046;-80
2022/03/04 05:22:44;;;;;;;40.40;19.58;;;;;;;;;;5046283;28;20046;-81
2022/03/04 05:25:13;;;;;;;42.00;19.10;;;;;;;;;;5039149;28;20049;-81
2022/03/04 05:27:39;;;;;;;47.72;19.50;;;;;;;;;;5041536;28;20050;-80
2022/03/04 05:30:07;;;;;;;42.97;19.42;;;;;;;;;;5056940;28;20057;-80
2022/03/04 05:32:36;;;;;;;47.47;19.95;;;;;;;;;;5059192;28;20080;-80
2022/03/04 05:35:03;;;;;;;39.58;19.90;;;;;;;;;;5059222;28;20075;-79
2022/03/04 05:37:30;;;;;;;46.53;21.30;;;;;;;;;;5058222;28;20049;-80
2022/03/04 05:39:57;;;;;;;44.75;19.10;;;;;;;;;;5057157;28;20057;-81
2022/03/04 05:42:24;;;;;;;34.33;17.83;;;;;;;;;;5040651;28;20049;-80
2022/03/04 05:44:50;;;;;;;38.42;19.42;;;;;;;;;;5037973;28;20050;-80
2022/03/04 05:47:17;;;;;;;39.60;18.90;;;;;;;;;;5037656;28;20064;-79
2022/03/04 05:49:46;;;;;;;50.50;19.58;;;;;;;;;;5039602;28;20050;-79
2022/03/04 05:52:12;;;;;;;50.00;18.40;;;;;;;;;;5040014;28;20056;-80
2022/03/04 05:54:39;;;;;;;48.03;19.10;;;;;;;;;;5037053;28;20439;-78
2022/03/04 05:57:07;;;;;;;46.35;19.70;;;;;;;;;;5036901;28;20058;-79
2022/03/04 05:59:34;;;;;;;38.10;17.67;;;;;;;;;;5037305;28;20057;-79
2022/03/04 06:02:01;;;;;;;43.30;19.80;;;;;;;;;;5037417;28;20080;-79
2022/03/04 06:04:28;;;;;;;43.40;18.00;;;;;;;;;;5037870;28;20046;-79
2022/03/04 06:06:56;;;;;;;43.35;19.30;;;;;;;;;;5037151;28;20045;-79
2022/03/04 06:09:27;;;;;;;37.85;17.35;;;;;;;;;;5037280;28;20060;-80
2022/03/04 06:11:55;;;;;;;43.67;19.98;;;;;;;;;;5037246;28;20045;-80
2022/03/04 06:14:21;;;;;;;43.80;19.80;;;;;;;;;;5036839;28;20057;-80
2022/03/04 06:16:48;;;;;;;42.58;18.85;;;;;;;;;;5036694;28;20096;-79
2022/03/04 06:19:15;;;;;;;46.30;19.35;;;;;;;;;;5037754;28;20052;-79
2022/03/04 06:21:42;;;;;;;48.80;19.90;;;;;;;;;;5039164;28;20049;-79
2022/03/04 06:24:10;;;;;;;48.97;20.65;;;;;;;;;;5037427;28;20050;-80
2022/03/04 06:26:38;;;;;;;46.20;20.10;;;;;;;;;;5037767;28;20053;-80
2022/03/04 06:29:04;;;;;;;45.55;19.48;;;;;;;;;;5036723;28;20046;-79
2022/03/04 06:31:31;;;;;;;48.17;19.10;;;;;;;;;;5036855;28;20054;-80
2022/03/04 06:33:58;;;;;;;44.83;20.42;;;;;;;;;;5036637;28;20049;-80
2022/03/04 06:36:25;;;;;;;45.60;19.35;;;;;;;;;;5036790;28;20045;-80
2022/03/04 06:38:52;;;;;;;40.67;19.42;;;;;;;;;;5038316;28;20496;-80
2022/03/04 06:41:20;;;;;;;42.05;19.30;;;;;;;;;;5041406;28;20118;-80
2022/03/04 06:43:48;;;;;;;46.42;20.02;;;;;;;;;;5036712;28;20068;-80
2022/03/04 06:46:15;;;;;;;42.20;20.27;;;;;;;;;;5036822;28;20042;-79
2022/03/04 06:48:42;;;;;;;42.28;18.50;;;;;;;;;;5036402;28;20052;-80
2022/03/04 06:51:09;;;;;;;49.92;19.55;;;;;;;;;;5036778;28;20053;-80
2022/03/04 06:53:36;;;;;;;44.13;19.00;;;;;;;;;;5037910;28;20107;-80
2022/03/04 06:56:03;;;;;;;42.10;20.95;;;;;;;;;;5039931;28;20053;-79
2022/03/04 06:58:33;;;;;;;45.97;20.30;;;;;;;;;;5036097;28;20132;-80
2022/03/04 07:01:00;;;;;;;41.88;18.45;;;;;;;;;;5036008;28;20054;-81
2022/03/04 07:03:26;;;;;;;44.97;18.40;;;;;;;;;;5043539;28;20049;-79
2022/03/04 07:05:53;;;;;;;51.20;25.50;;;;;;;;;;5049350;28;20046;-79
2022/03/04 07:08:20;;;;;;;44.78;19.98;;;;;;;;;;5050217;28;20473;-80
2022/03/04 07:10:47;;;;;;;42.88;19.77;;;;;;;;;;5049563;28;20088;-80
2022/03/04 07:13:15;;;;;;;41.50;19.23;;;;;;;;;;5050093;28;20045;-80
2022/03/04 07:15:44;;;;;;;43.10;20.88;;;;;;;;;;5044656;28;20049;-81
2022/03/04 07:18:10;;;;;;;51.50;21.38;;;;;;;;;;5037583;28;20049;-80
2022/03/04 07:20:37;;;;;;;49.60;20.92;;;;;;;;;;5044053;28;20508;-79
2022/03/04 07:23:05;;;;;;;43.53;20.08;;;;;;;;;;5046559;28;20049;-79
2022/03/04 07:25:32;;;;;;;41.45;18.85;;;;;;;;;;5046964;28;20045;-79
2022/03/04 07:27:59;;;;;;;47.90;19.35;;;;;;;;;;5044264;28;20087;-79
2022/03/04 07:30:25;;;;;;;45.70;19.80;;;;;;;;;;5044749;28;20080;-79
2022/03/04 07:32:54;;;;;;;40.15;18.05;;;;;;;;;;5046408;28;20041;-80
2022/03/04 07:35:21;;;;;;;42.03;19.23;;;;;;;;;;5037083;28;20052;-79
2022/03/04 07:37:47;;;;;;;42.97;18.92;;;;;;;;;;5027500;28;20081;-79
2022/03/04 07:40:15;;;;;;;45.10;19.67;;;;;;;;;;5026806;28;20057;-79
2022/03/04 07:42:43;;;;;;;45.05;20.73;;;;;;;;;;5023223;28;20053;-79
2022/03/04 07:45:12;;;;;;;42.65;20.63;;;;;;;;;;5022364;28;20400;-79
2022/03/04 07:47:41;;;;;;;42.78;19.63;;;;;;;;;;5030376;28;20049;-80
2022/03/04 07:50:12;;;;;;;43.92;19.00;;;;;;;;;;5031654;28;20050;-79
2022/03/04 07:52:39;;;;;;;45.85;18.85;;;;;;;;;;5026452;28;20042;-79
2022/03/04 07:55:09;;;;;;;41.75;18.27;;;;;;;;;;5033824;28;20053;-80
2022/03/04 07:57:36;;;;;;;46.20;19.53;;;;;;;;;;5040781;28;20050;-80
2022/03/04 08:00:05;;;;;;;47.17;21.63;;;;;;;;;;5038939;28;20060;-80
2022/03/04 08:02:32;;;;;;;45.97;19.23;;;;;;;;;;5031098;28;20042;-79
2022/03/04 08:04:59;;;;;;;41.50;19.60;;;;;;;;;;5021210;28;20053;-79
2022/03/04 08:07:27;;;;;;;35.67;18.35;;;;;;;;;;5027809;28;20042;-80
2022/03/04 08:09:54;;;;;;;42.65;19.52;;;;;;;;;;5027433;28;20050;-79
2022/03/04 08:12:22;;;;;;;47.45;19.65;;;;;;;;;;5032824;28;20052;-80
2022/03/04 08:14:49;;;;;;;43.75;18.88;;;;;;;;;;5028234;28;20129;-79
2022/03/04 08:17:16;;;;;;;38.50;17.77;;;;;;;;;;5031556;28;20052;-80
2022/03/04 08:19:43;;;;;;;44.53;20.10;;;;;;;;;;5027152;28;20053;-80
2022/03/04 08:22:10;;;;;;;37.47;18.45;;;;;;;;;;5028566;28;20037;-80
2022/03/04 08:24:38;;;;;;;40.58;18.95;;;;;;;;;;5030867;28;20041;-80
2022/03/04 08:27:05;;;;;;;41.38;20.80;;;;;;;;;;5029597;28;20041;-80
2022/03/04 08:29:32;;;;;;;40.58;18.30;;;;;;;;;;5028915;28;20041;-80
2022/03/04 08:32:00;;;;;;;40.35;18.63;;;;;;;;;;5028399;28;20077;-81
2022/03/04 08:34:26;;;;;;;43.63;19.40;;;;;;;;;;5030430;28;20064;-80
2022/03/04 08:36:53;;;;;;;43.78;18.98;;;;;;;;;;5026378;28;20057;-80
2022/03/04 08:39:20;;;;;;;40.33;19.38;;;;;;;;;;5028409;28;20041;-80
2022/03/04 08:41:49;;;;;;;47.88;19.08;;;;;;;;;;5027257;28;20065;-79
2022/03/04 08:44:16;;;;;;;47.20;20.73;;;;;;;;;;5032004;28;20053;-81
2022/03/04 08:46:43;;;;;;;37.58;18.77;;;;;;;;;;5029110;28;20056;-79
2022/03/04 08:49:10;;;;;;;45.50;20.20;;;;;;;;;;5027487;28;20050;-80
2022/03/04 08:51:37;;;;;;;41.88;19.17;;;;;;;;;;5026739;28;20061;-80
2022/03/04 08:54:05;;;;;;;41.90;18.13;;;;;;;;;;5026423;28;20045;-80
2022/03/04 08:56:32;;;;;;;40.63;20.38;;;;;;;;;;5020213;28;20473;-79
2022/03/04 08:59:01;;;;;;;45.25;20.05;;;;;;;;;;5019725;28;20104;-79
2022/03/04 09:01:28;;;;;;;41.58;20.52;;;;;;;;;;5037680;28;20156;-79
2022/03/04 09:03:55;;;;;;;47.35;20.08;;;;;;;;;;5040232;28;20054;-80
2022/03/04 09:06:22;;;;;;;41.08;18.58;;;;;;;;;;5033170;28;20050;-80
2022/03/04 09:08:48;;;;;;;39.33;20.13;;;;;;;;;;5018816;28;20042;-80
2022/03/04 09:11:15;;;;;;;39.28;18.42;;;;;;;;;;5020788;28;20046;-79
2022/03/04 09:13:42;;;;;;;41.65;18.83;;;;;;;;;;5019784;28;20082;-79
2022/03/04 09:16:10;;;;;;;45.83;19.40;;;;;;;;;;5019012;28;20061;-79
2022/03/04 09:18:37;;;;;;;45.15;17.73;;;;;;;;;;5018976;28;20042;-79
2022/03/04 09:21:04;;;;;;;45.30;19.17;;;;;;;;;;5018925;28;20049;-79
2022/03/04 09:23:31;;;;;;;40.53;18.80;;;;;;;;;;5018533;28;20408;-79
2022/03/04 09:25:58;;;;;;;41.20;19.33;;;;;;;;;;5018116;28;20050;-79
2022/03/04 09:28:24;;;;;;;36.45;18.20;;;;;;;;;;5025805;28;20044;-79
2022/03/04 09:30:51;;;;;;;39.72;18.58;;;;;;;;;;5027717;28;20049;-79
2022/03/04 09:33:20;;;;;;;43.20;18.77;;;;;;;;;;5021144;28;20124;-79
2022/03/04 09:35:46;;;;;;;41.45;18.42;;;;;;;;;;5027375;28;20056;-79
2022/03/04 09:38:13;;;;;;;43.65;18.60;;;;;;;;;;5035392;28;20055;-80
2022/03/04 09:40:40;;;;;;;45.88;20.25;;;;;;;;;;5039711;28;20049;-81
2022/03/04 09:43:07;;;;;;;49.22;19.67;;;;;;;;;;5046413;28;20048;-80
2022/03/04 09:45:35;;;;;;;49.70;20.45;;;;;;;;;;5048525;28;20033;-80
2022/03/04 09:48:03;;;;;;;52.33;21.92;;;;;;;;;;5047473;28;20072;-80
2022/03/04 09:50:32;;;;;;;50.50;23.00;;;;;;;;;;5039122;28;20420;-79
2022/03/04 09:52:59;;;;;;;48.30;20.13;;;;;;;;;;5036245;28;20554;-80
2022/03/04 09:55:26;;;;;;;41.70;20.27;;;;;;;;;;5020868;28;20100;-81
2022/03/04 09:57:53;;;;;;;44.15;19.63;;;;;;;;;;5027570;28;20056;-79
2022/03/04 10:00:20;;;;;;;40.25;20.17;;;;;;;;;;5029860;28;20049;-79
2022/03/04 10:02:47;;;;;;;51.67;20.25;;;;;;;;;;5020180;28;20054;-80
2022/03/04 10:05:14;;;;;;;57.53;23.85;;;;;;;;;;5028560;28;20076;-80
2022/03/04 10:07:45;;;;;;;48.80;19.60;;;;;;;;;;5027931;28;20075;-80
2022/03/04 10:10:14;;;;;;;50.42;20.73;;;;;;;;;;5028038;28;20098;-81
2022/03/04 10:12:48;;;;;;;43.88;20.17;;;;;;;;;;5030820;28;20042;-81
2022/03/04 10:15:16;;;;;;;44.25;17.52;;;;;;;;;;5035659;28;20068;-81
2022/03/04 10:17:55;;;;;;;41.22;18.90;;;;;;;;;;5034589;28;20050;-81
2022/03/04 10:20:31;;;;;;;40.00;19.38;;;;;;;;;;5029024;28;20077;-80
2022/03/04 10:23:14;;;;;;;41.92;17.98;;;;;;;;;;5027333;28;20425;-81
2022/03/04 10:25:45;;;;;;;41.70;18.90;;;;;;;;;;5026800;28;20136;-81
2022/03/04 10:28:12;;;;;;;41.50;19.38;;;;;;;;;;5028621;28;20053;-80
2022/03/04 10:30:44;;;;;;;42.40;18.55;;;;;;;;;;5020363;28;20107;-80
2022/03/04 10:33:13;;;;;;;39.25;17.42;;;;;;;;;;5034180;28;20099;-80
2022/03/04 10:35:40;;;;;;;41.78;19.48;;;;;;;;;;5022808;28;20061;-79
2022/03/04 10:38:18;;;;;;;38.15;17.20;;;;;;;;;;5034106;28;20100;-79
2022/03/04 10:40:45;;;;;;;43.65;19.25;;;;;;;;;;5034631;28;20053;-82
2022/03/04 10:43:13;;;;;;;42.00;17.65;;;;;;;;;;5035635;28;20105;-80
2022/03/04 10:45:41;;;;;;;42.28;19.15;;;;;;;;;;5037799;28;20046;-79
2022/03/04 10:48:13;;;;;;;40.72;19.08;;;;;;;;;;5035571;28;20050;-80
2022/03/04 10:50:42;;;;;;;42.47;19.42;;;;;;;;;;5034546;28;20050;-81
2022/03/04 10:53:12;;;;;;;43.80;20.20;;;;;;;;;;5026214;28;20120;-80
2022/03/04 10:55:41;;;;;;;46.60;20.10;;;;;;;;;;5024525;28;20045;-81
2022/03/04 10:58:14;;;;;;;42.58;19.13;;;;;;;;;;5023820;28;20080;-79
2022/03/04 11:00:43;;;;;;;40.95;19.05;;;;;;;;;;5016017;28;20046;-79
2022/03/04 11:03:15;;;;;;;45.55;19.33;;;;;;;;;;5014572;28;20135;-81
2022/03/04 11:05:42;;;;;;;43.10;19.73;;;;;;;;;;5015433;28;20092;-80
2022/03/04 11:08:11;;;;;;;40.85;18.65;;;;;;;;;;5026881;28;20049;-81
2022/03/04 11:10:38;;;;;;;44.47;18.85;;;;;;;;;;5044071;28;20041;-80
2022/03/04 11:13:07;;;;;;;38.38;19.38;;;;;;;;;;5040987;28;20049;-82
2022/03/04 11:15:35;;;;;;;41.78;18.60;;;;;;;;;;5040268;28;20042;-79
2022/03/04 11:18:04;;;;;;;43.92;18.80;;;;;;;;;;5041693;28;20056;-80
2022/03/04 11:20:31;;;;;;;41.90;19.75;;;;;;;;;;5047887;28;20049;-81
2022/03/04 11:22:59;;;;;;;41.92;18.17;;;;;;;;;;5053957;28;20045;-79
2022/03/04 11:25:35;;;;;;;40.20;20.90;;;;;;;;;;5051986;28;20048;-79
2022/03/04 11:28:10;;;;;;;41.35;19.10;;;;;;;;;;5043006;28;20095;-79
2022/03/04 11:30:41;;;;;;;40.50;19.77;;;;;;;;;;5035525;28;20045;-81
2022/03/04 11:33:20;;;;;;;37.53;18.90;;;;;;;;;;5037458;28;20046;-82
2022/03/04 11:35:53;;;;;;;41.13;18.73;;;;;;;;;;5039694;28;20052;-82
2022/03/04 11:39:05;;;;;;;36.25;18.55;;;;;;;;;;5044324;28;20052;-79
2022/03/04 11:41:39;;;;;;;41.58;19.77;;;;;;;;;;5021712;28;20049;-81
2022/03/04 11:44:17;;;;;;;41.38;20.08;;;;;;;;;;5021700;28;20056;-83
2022/03/04 11:46:52;;;;;;;39.80;20.70;;;;;;;;;;5031222;28;20069;-83
2022/03/04 11:49:24;;;;;;;45.70;19.08;;;;;;;;;;5036002;28;20101;-84
2022/03/04 11:52:21;;;;;;;43.97;19.85;;;;;;;;;;5037436;28;20060;-82
2022/03/04 11:55:10;;;;;;;35.80;18.20;;;;;;;;;;5052706;28;20037;-80
2022/03/04 11:57:39;;;;;;;41.05;19.95;;;;;;;;;;5051574;28;20061;-80
2022/03/04 12:00:37;;;;;;;45.63;20.70;;;;;;;;;;5028260;28;20046;-82
2022/03/04 12:03:18;;;;;;;41.92;20.60;;;;;;;;;;4985383;28;20081;-82
2022/03/04 12:06:00;;;;;;;43.03;19.75;;;;;;;;;;5021036;28;20054;-82
2022/03/04 12:08:39;;;;;;;40.78;20.05;;;;;;;;;;5025019;28;20085;-82
2022/03/04 12:11:06;;;;;;;42.55;20.50;;;;;;;;;;5025243;28;20121;-82
2022/03/04 12:13:41;;;;;;;41.38;20.13;;;;;;;;;;5025044;28;20057;-82
2022/03/04 12:16:09;;;;;;;42.28;18.58;;;;;;;;;;5025226;28;20045;-82
2022/03/04 12:18:43;;;;;;;39.75;18.00;;;;;;;;;;5026899;28;20093;-82
2022/03/04 12:21:24;;;;;;;48.75;21.73;;;;;;;;;;5025857;28;20057;-82
2022/03/04 12:23:52;;;;;;;;;;;;;;;;;;5021127;28;20632;-81
2022/03/04 12:26:24;;;;;;;33.75;16.77;;;;;;;;;;5014878;28;19925;-81
2022/03/04 12:29:02;;;;;;;35.83;17.15;;;;;;;;;;5014719;28;20116;-81
2022/03/04 12:31:33;;;;;;;37.35;18.10;;;;;;;;;;5015223;28;20421;-82
2022/03/04 12:34:01;;;;;;;37.17;18.13;;;;;;;;;;5022314;28;20053;-82
2022/03/04 12:36:29;;;;;;;39.80;17.50;;;;;;;;;;5016381;28;20057;-83
2022/03/04 12:38:59;;;;;;;36.03;16.42;;;;;;;;;;5015013;28;20049;-81
2022/03/04 12:41:27;;;;;;;33.50;15.15;;;;;;;;;;5014898;28;20710;-83
2022/03/04 12:43:58;;;;;;;38.97;15.95;;;;;;;;;;5014494;28;20398;-82
2022/03/04 12:46:27;;;;;;;36.22;16.70;;;;;;;;;;5014979;28;20057;-82
2022/03/04 12:48:55;;;;;;;36.35;17.73;;;;;;;;;;5014934;28;20256;-83
2022/03/04 12:51:30;;;;;;;30.30;14.75;;;;;;;;;;5014390;28;20061;-82
2022/03/04 12:53:59;;;;;;;28.27;14.82;;;;;;;;;;5014342;28;20432;-83
2022/03/04 12:56:27;;;;;;;36.80;17.80;;;;;;;;;;5025533;28;20060;-82
2022/03/04 12:58:56;;;;;;;30.67;15.55;;;;;;;;;;5028970;28;20068;-81
2022/03/04 13:01:25;;;;;;;31.10;14.57;;;;;;;;;;5024515;28;20057;-82
2022/03/04 13:03:54;;;;;;;29.50;14.82;;;;;;;;;;5028124;28;20050;-82
2022/03/04 13:06:22;;;;;;;32.38;14.52;;;;;;;;;;5027481;28;20049;-82
2022/03/04 13:08:51;;;;;;;33.78;15.20;;;;;;;;;;5027493;28;20060;-81
2022/03/04 13:11:20;;;;;;;30.05;15.07;;;;;;;;;;5027669;28;20037;-82
2022/03/04 13:14:07;;;;;;;36.80;16.25;;;;;;;;;;5025878;28;20059;-81
2022/03/04 13:16:42;;;;;;;33.55;16.70;;;;;;;;;;5025092;28;20465;-82
2022/03/04 13:19:11;;;;;;;28.65;14.63;;;;;;;;;;5023749;28;20050;-81
2022/03/04 13:21:44;;;;;;;27.65;14.07;;;;;;;;;;5018972;28;20050;-82
2022/03/04 13:24:25;;;;;;;34.40;13.82;;;;;;;;;;5020898;28;20046;-82
2022/03/04 13:26:55;;;;;;;28.85;13.88;;;;;;;;;;5026668;28;20053;-82
2022/03/04 13:29:25;;;;;;;28.67;14.15;;;;;;;;;;5029664;28;20049;-82
2022/03/04 13:31:53;;;;;;;29.13;13.57;;;;;;;;;;5028553;28;20417;-82
2022/03/04 13:34:31;;;;;;;26.40;12.63;;;;;;;;;;5036102;28;20489;-82
2022/03/04 13:37:00;;;;;;;18.13;9.02;;;;;;;;;;5036210;28;20048;-84
2022/03/04 13:39:29;;;;;;;19.02;8.98;;;;;;;;;;5036949;28;20140;-82
2022/03/04 13:42:18;;;;;;;24.35;12.73;;;;;;;;;;5036651;28;20081;-82
2022/03/04 13:45:01;;;;;;;25.38;13.43;;;;;;;;;;5028170;28;20056;-82
2022/03/04 13:47:29;;;;;;;25.17;12.70;;;;;;;;;;5029919;28;20049;-82
2022/03/04 13:49:56;;;;;;;26.27;13.38;;;;;;;;;;5028680;28;20049;-82
2022/03/04 13:52:23;;;;;;;26.25;14.10;;;;;;;;;;5030516;28;20046;-82
2022/03/04 13:54:53;;;;;;;26.23;13.77;;;;;;;;;;5031624;28;20107;-83
2022/03/04 13:57:31;;;;;;;29.23;14.40;;;;;;;;;;5028541;28;20042;-81
2022/03/04 14:00:09;;;;;;;31.20;14.68;;;;;;;;;;5025437;28;20076;-84
2022/03/04 14:02:43;;;;;;;28.88;15.02;;;;;;;;;;5022296;28;20054;-81
2022/03/04 14:05:12;;;;;;;29.80;13.85;;;;;;;;;;5037236;28;20037;-81
2022/03/04 14:07:47;;;;;;;27.63;13.20;;;;;;;;;;5030700;28;20045;-83
2022/03/04 14:10:16;;;;;;;29.10;13.32;;;;;;;;;;5025506;28;20138;-82
2022/03/04 14:12:43;;;;;;;24.13;13.23;;;;;;;;;;5026529;28;20053;-81
2022/03/04 14:15:13;;;;;;;25.60;12.85;;;;;;;;;;5022218;28;20057;-81
2022/03/04 14:17:48;;;;;;;27.38;14.00;;;;;;;;;;5031372;28;20061;-81
2022/03/04 14:20:14;;;;;;;24.55;13.23;;;;;;;;;;5025101;28;20080;-81
2022/03/04 14:22:42;;;;;;;27.13;13.55;;;;;;;;;;5027063;28;20655;-81
2022/03/04 14:25:09;;;;;;;27.30;14.18;;;;;;;;;;5027154;28;20056;-81
2022/03/04 14:27:38;;;;;;;25.15;13.13;;;;;;;;;;5024930;28;20038;-81